createdAt,value
2023-02-02T00:00:39.793Z,56.92
2023-02-02T00:01:36.576Z,56.58
2023-02-02T00:02:33.387Z,56.87
2023-02-02T00:03:31.082Z,56.62
2023-02-02T00:04:31.132Z,55.51
2023-02-02T00:05:27.999Z,55.62
2023-02-02T00:06:27.327Z,55.52
2023-02-02T00:07:24.076Z,56.17
2023-02-02T00:08:22.398Z,56.26
2023-02-02T00:09:20.909Z,55.71
2023-02-02T00:10:17.831Z,56.24
2023-02-02T00:11:16.231Z,56.94
2023-02-02T00:12:13.003Z,57.40
2023-02-02T00:13:09.685Z,56.68
2023-02-02T00:14:07.936Z,57.35
2023-02-02T00:15:05.025Z,56.03
2023-02-02T00:16:26.464Z,56.32
2023-02-02T00:17:23.215Z,56.71
2023-02-02T00:18:20.060Z,56.74
2023-02-02T00:19:20.133Z,57.84
2023-02-02T00:20:16.923Z,57.30
2023-02-02T00:21:13.705Z,57.18
2023-02-02T00:22:10.512Z,57.26
2023-02-02T00:23:25.866Z,58.30
2023-02-02T00:24:23.471Z,58.29
2023-02-02T00:25:20.301Z,58.45
2023-02-02T00:26:17.875Z,57.85
2023-02-02T00:27:14.770Z,58.33
2023-02-02T00:28:11.455Z,59.91
2023-02-02T00:29:15.759Z,59.72
2023-02-02T00:30:13.271Z,60.69
2023-02-02T00:31:10.163Z,60.68
2023-02-02T00:32:06.972Z,60.85
2023-02-02T00:33:03.830Z,60.89
2023-02-02T00:34:01.055Z,61.02
2023-02-02T00:34:57.837Z,60.85
2023-02-02T00:35:54.958Z,60.39
2023-02-02T00:36:52.977Z,60.87
2023-02-02T00:37:49.707Z,60.82
2023-02-02T00:38:47.517Z,60.19
2023-02-02T00:39:44.219Z,60.68
2023-02-02T00:40:40.997Z,60.27
2023-02-02T00:41:37.710Z,60.07
2023-02-02T00:42:34.507Z,60.76
2023-02-02T00:43:31.279Z,60.45
2023-02-02T00:44:46.504Z,60.46
2023-02-02T00:45:43.603Z,59.79
2023-02-02T00:46:41.836Z,61.17
2023-02-02T00:47:38.579Z,60.77
2023-02-02T00:48:35.341Z,60.70
2023-02-02T00:49:32.134Z,60.99
2023-02-02T00:50:29.110Z,61.14
2023-02-02T00:51:25.902Z,61.84
2023-02-02T00:52:22.620Z,61.68
2023-02-02T00:53:20.245Z,62.05
2023-02-02T00:54:17.042Z,62.95
2023-02-02T00:55:15.269Z,62.96
2023-02-02T00:56:12.046Z,63.01
2023-02-02T00:57:13.602Z,62.66
2023-02-02T00:58:10.525Z,62.80
2023-02-02T00:59:07.299Z,62.53
2023-02-02T01:00:07.020Z,62.08
2023-02-02T01:01:03.898Z,61.65
2023-02-02T01:02:02.132Z,62.62
2023-02-02T01:03:04.369Z,61.60
2023-02-02T01:04:01.691Z,61.72
2023-02-02T01:04:58.519Z,62.02
2023-02-02T01:05:55.259Z,61.91
2023-02-02T01:06:52.006Z,61.41
2023-02-02T01:07:49.158Z,61.80
2023-02-02T01:08:46.143Z,62.57
2023-02-02T01:09:42.899Z,62.93
2023-02-02T01:10:39.687Z,62.41
2023-02-02T01:11:36.861Z,63.31
2023-02-02T01:12:33.620Z,63.89
2023-02-02T01:13:30.425Z,63.44
2023-02-02T01:14:27.667Z,63.24
2023-02-02T01:15:24.693Z,63.84
2023-02-02T01:16:24.933Z,64.08
2023-02-02T01:17:21.854Z,64.82
2023-02-02T01:18:18.616Z,63.55
2023-02-02T01:19:16.372Z,63.00
2023-02-02T01:20:18.767Z,62.84
2023-02-02T01:21:15.546Z,62.11
2023-02-02T01:22:12.507Z,63.18
2023-02-02T01:23:09.498Z,62.37
2023-02-02T01:24:06.628Z,62.71
2023-02-02T01:25:03.475Z,62.95
2023-02-02T01:26:02.676Z,63.45
2023-02-02T01:26:59.505Z,62.73
2023-02-02T01:27:56.339Z,63.13
2023-02-02T01:28:53.155Z,63.28
2023-02-02T01:29:49.958Z,63.69
2023-02-02T01:30:46.857Z,64.58
2023-02-02T01:31:44.325Z,64.08
2023-02-02T01:32:41.115Z,63.98
2023-02-02T01:33:38.004Z,64.02
2023-02-02T01:34:35.138Z,63.12
2023-02-02T01:35:32.440Z,63.15
2023-02-02T01:36:29.262Z,63.79
2023-02-02T01:37:26.025Z,64.97
2023-02-02T01:38:24.563Z,64.11
2023-02-02T01:39:21.391Z,65.13
2023-02-02T01:40:18.290Z,64.73
2023-02-02T01:41:18.739Z,65.70
2023-02-02T01:42:23.640Z,65.31
2023-02-02T01:43:31.254Z,65.49
2023-02-02T01:44:53.214Z,66.58
2023-02-02T01:45:51.810Z,67.17
2023-02-02T01:46:48.579Z,68.07
2023-02-02T01:47:54.410Z,68.09
2023-02-02T01:48:58.807Z,67.98
2023-02-02T01:49:56.175Z,67.60
2023-02-02T01:50:59.211Z,68.37
2023-02-02T01:53:20.031Z,68.86
2023-02-02T01:54:25.048Z,68.34
2023-02-02T01:55:26.813Z,68.00
2023-02-02T01:56:37.436Z,68.53
2023-02-02T01:57:34.095Z,70.04
2023-02-02T01:58:35.459Z,69.00
2023-02-02T01:59:34.695Z,70.00
2023-02-02T02:00:31.762Z,69.93
2023-02-02T02:01:28.917Z,69.82
2023-02-02T02:02:28.982Z,70.88
2023-02-02T02:03:29.645Z,71.33
2023-02-02T02:04:30.819Z,72.56
2023-02-02T02:05:36.354Z,73.77
2023-02-02T02:06:33.917Z,74.61
2023-02-02T02:07:31.136Z,75.40
2023-02-02T02:08:34.787Z,75.39
2023-02-02T02:09:31.635Z,75.58
2023-02-02T02:10:28.459Z,75.10
2023-02-02T02:11:25.610Z,75.02
2023-02-02T02:12:22.438Z,76.51
2023-02-02T02:13:44.094Z,77.93
2023-02-02T02:15:01.919Z,78.22
2023-02-02T02:16:24.808Z,78.57
2023-02-02T02:17:32.492Z,78.86
2023-02-02T02:18:38.956Z,79.99
2023-02-02T02:20:31.910Z,80.10
2023-02-02T02:21:59.006Z,81.18
2023-02-02T02:23:32.962Z,80.07
2023-02-02T02:25:20.181Z,80.94
2023-02-02T02:26:38.635Z,81.87
2023-02-02T02:27:56.403Z,82.13
2023-02-02T02:29:22.523Z,82.48
2023-02-02T02:30:28.246Z,83.08
2023-02-02T02:31:58.839Z,83.06
2023-02-02T02:33:06.980Z,83.12
2023-02-02T02:34:06.415Z,82.99
2023-02-02T02:35:37.815Z,83.39
2023-02-02T02:36:56.461Z,83.79
2023-02-02T02:38:17.926Z,83.52
2023-02-02T02:39:29.318Z,83.89
2023-02-02T02:40:31.640Z,84.43
2023-02-02T02:41:34.853Z,83.47
2023-02-02T02:42:41.656Z,84.52
2023-02-02T02:43:48.894Z,85.17
2023-02-02T02:44:49.303Z,85.45
2023-02-02T02:45:46.422Z,85.94
2023-02-02T02:46:44.631Z,85.54
2023-02-02T02:47:43.792Z,86.48
2023-02-02T02:48:44.883Z,86.92
2023-02-02T02:49:49.483Z,88.62
2023-02-02T02:50:46.412Z,88.12
2023-02-02T02:51:49.058Z,87.60
2023-02-02T02:52:49.610Z,87.52
2023-02-02T02:53:46.373Z,88.12
2023-02-02T02:54:51.697Z,88.58
2023-02-02T02:56:12.521Z,89.26
2023-02-02T02:57:18.934Z,89.63
2023-02-02T02:58:33.660Z,89.46
2023-02-02T03:00:01.447Z,90.22
2023-02-02T03:01:17.666Z,90.81
2023-02-02T03:02:17.322Z,91.03
2023-02-02T03:03:37.980Z,91.11
2023-02-02T03:05:01.006Z,91.45
2023-02-02T03:06:28.472Z,90.92
2023-02-02T03:07:49.739Z,91.22
2023-02-02T03:08:54.683Z,90.61
2023-02-02T03:09:55.734Z,91.12
2023-02-02T03:10:55.655Z,91.08
2023-02-02T03:11:52.920Z,91.74
2023-02-02T03:12:52.030Z,92.18
2023-02-02T03:13:49.239Z,92.56
2023-02-02T03:14:46.066Z,92.59
2023-02-02T03:15:44.890Z,95.01
2023-02-02T03:16:41.620Z,95.48
2023-02-02T03:17:38.542Z,94.95
2023-02-02T03:18:35.795Z,93.91
2023-02-02T03:19:32.802Z,92.93
2023-02-02T03:20:29.507Z,92.91
2023-02-02T03:21:26.287Z,93.82
2023-02-02T03:22:23.086Z,93.35
2023-02-02T03:23:19.964Z,95.32
2023-02-02T03:24:16.708Z,95.57
2023-02-02T03:25:13.655Z,95.88
2023-02-02T03:26:10.649Z,97.31
2023-02-02T03:27:07.480Z,97.51
2023-02-02T03:28:05.594Z,98.55
2023-02-02T03:29:03.236Z,98.34
2023-02-02T03:30:00.149Z,97.56
2023-02-02T03:31:02.158Z,96.03
2023-02-02T03:32:00.545Z,95.36
2023-02-02T03:32:57.517Z,95.39
2023-02-02T03:33:55.137Z,95.70
2023-02-02T03:34:52.021Z,94.03
2023-02-02T03:35:48.807Z,93.62
2023-02-02T03:36:45.717Z,93.39
2023-02-02T03:37:42.506Z,93.43
2023-02-02T03:38:39.372Z,93.29
2023-02-02T03:39:36.221Z,92.07
2023-02-02T03:40:33.015Z,91.81
2023-02-02T03:41:29.753Z,90.77
2023-02-02T03:42:26.578Z,89.75
2023-02-02T03:43:24.315Z,89.47
2023-02-02T03:44:21.090Z,89.17
2023-02-02T03:45:17.961Z,88.70
2023-02-02T03:46:15.152Z,89.03
2023-02-02T03:47:11.987Z,88.57
2023-02-02T03:48:08.842Z,89.09
2023-02-02T03:49:05.717Z,90.59
2023-02-02T03:50:02.521Z,91.02
2023-02-02T03:50:59.372Z,91.89
2023-02-02T03:51:56.126Z,93.34
2023-02-02T03:52:54.752Z,93.23
2023-02-02T03:53:51.517Z,93.63
2023-02-02T03:54:48.219Z,94.13
2023-02-02T03:55:44.943Z,92.70
2023-02-02T03:56:41.702Z,92.61
2023-02-02T03:57:38.473Z,94.16
2023-02-02T03:58:35.301Z,95.46
2023-02-02T03:59:32.066Z,96.04
2023-02-02T04:00:28.834Z,97.31
2023-02-02T04:01:43.319Z,96.70
2023-02-02T04:02:40.268Z,97.54
2023-02-02T04:03:37.712Z,98.28
2023-02-02T04:04:34.570Z,97.95
2023-02-02T04:05:31.448Z,98.13
2023-02-02T04:06:28.342Z,97.52
2023-02-02T04:07:25.166Z,97.69
2023-02-02T04:08:21.874Z,97.85
2023-02-02T04:09:18.723Z,98.32
2023-02-02T04:10:15.644Z,97.49
2023-02-02T04:11:13.022Z,96.66
2023-02-02T04:12:09.838Z,96.38
2023-02-02T04:13:06.593Z,96.00
2023-02-02T04:14:03.287Z,97.27
2023-02-02T04:15:00.026Z,98.06
2023-02-02T04:16:02.135Z,98.77
2023-02-02T04:16:58.958Z,98.67
2023-02-02T04:17:55.705Z,98.92
2023-02-02T04:18:55.536Z,98.74
2023-02-02T04:19:58.139Z,96.84
2023-02-02T04:21:02.219Z,96.67
2023-02-02T04:21:58.955Z,95.96
2023-02-02T04:22:55.623Z,95.73
2023-02-02T04:23:52.378Z,97.36
2023-02-02T04:24:49.096Z,97.17
2023-02-02T04:25:50.260Z,96.51
2023-02-02T04:26:47.104Z,95.53
2023-02-02T04:27:43.910Z,95.67
2023-02-02T04:28:40.668Z,95.90
2023-02-02T04:29:37.401Z,97.47
2023-02-02T04:30:34.181Z,96.96
2023-02-02T04:31:32.091Z,97.77
2023-02-02T04:32:28.831Z,97.97
2023-02-02T04:33:28.186Z,98.58
2023-02-02T04:34:24.898Z,98.30
2023-02-02T04:35:21.810Z,98.00
2023-02-02T04:36:18.681Z,96.75
2023-02-02T04:37:15.443Z,95.76
2023-02-02T04:38:13.050Z,94.82
2023-02-02T04:39:12.049Z,92.84
2023-02-02T04:40:09.414Z,92.37
2023-02-02T04:41:08.669Z,91.55
2023-02-02T04:42:05.523Z,90.62
2023-02-02T04:43:02.255Z,89.76
2023-02-02T04:43:59.072Z,89.19
2023-02-02T04:44:55.796Z,88.35
2023-02-02T04:45:57.148Z,88.21
2023-02-02T04:46:54.276Z,87.36
2023-02-02T04:47:51.612Z,88.01
2023-02-02T04:48:49.453Z,87.89
2023-02-02T04:49:46.195Z,88.62
2023-02-02T04:50:42.988Z,87.80
2023-02-02T04:51:40.941Z,87.55
2023-02-02T04:53:09.584Z,86.50
2023-02-02T04:54:07.230Z,85.90
2023-02-02T04:55:04.163Z,84.73
2023-02-02T04:56:29.209Z,83.97
2023-02-02T04:57:26.041Z,82.66
2023-02-02T04:58:23.099Z,81.97
2023-02-02T04:59:19.951Z,81.25
2023-02-02T05:00:17.408Z,80.87
2023-02-02T05:01:20.807Z,79.99
2023-02-02T05:02:17.616Z,80.23
2023-02-02T05:03:14.440Z,80.00
2023-02-02T05:04:12.018Z,80.12
2023-02-02T05:05:12.666Z,79.31
2023-02-02T05:06:09.870Z,79.66
2023-02-02T05:07:06.587Z,79.40
2023-02-02T05:08:03.592Z,79.44
2023-02-02T05:09:01.224Z,80.48
2023-02-02T05:09:58.011Z,81.97
2023-02-02T05:10:54.836Z,82.99
2023-02-02T05:11:51.624Z,84.79
2023-02-02T05:12:48.461Z,85.43
2023-02-02T05:13:47.607Z,85.70
2023-02-02T05:14:44.427Z,86.00
2023-02-02T05:15:41.327Z,87.17
2023-02-02T05:16:39.726Z,87.05
2023-02-02T05:17:36.571Z,87.63
2023-02-02T05:18:33.483Z,88.46
2023-02-02T05:19:30.281Z,89.16
2023-02-02T05:20:27.144Z,89.37
2023-02-02T05:21:24.546Z,91.25
2023-02-02T05:22:21.326Z,91.84
2023-02-02T05:23:18.828Z,93.20
2023-02-02T05:24:15.750Z,93.93
2023-02-02T05:25:12.452Z,94.86
2023-02-02T05:26:15.640Z,94.96
2023-02-02T05:27:12.461Z,95.21
2023-02-02T05:28:09.241Z,94.03
2023-02-02T05:29:09.362Z,94.06
2023-02-02T05:30:06.771Z,94.84
2023-02-02T05:31:07.745Z,95.60
2023-02-02T05:32:04.940Z,96.50
2023-02-02T05:33:01.766Z,96.03
2023-02-02T05:33:58.929Z,96.42
2023-02-02T05:34:55.766Z,97.92
2023-02-02T05:35:52.902Z,98.18
2023-02-02T05:36:49.947Z,97.61
2023-02-02T05:37:46.704Z,99.43
2023-02-02T05:38:43.441Z,100.00
2023-02-02T05:39:40.252Z,100.00
2023-02-02T05:40:36.989Z,100.00
2023-02-02T05:41:33.769Z,100.00
2023-02-02T05:42:30.588Z,100.00
2023-02-02T05:43:32.272Z,100.00
2023-02-02T05:44:29.007Z,100.00
2023-02-02T05:45:26.130Z,100.00
2023-02-02T05:46:23.070Z,100.00
2023-02-02T05:47:19.896Z,100.00
2023-02-02T05:48:16.695Z,100.00
2023-02-02T05:49:14.549Z,100.00
2023-02-02T05:50:11.536Z,100.00
2023-02-02T05:51:17.426Z,100.00
2023-02-02T05:52:22.326Z,99.40
2023-02-02T05:53:19.147Z,97.87
2023-02-02T05:54:20.395Z,97.67
2023-02-02T05:55:18.439Z,97.78
2023-02-02T05:56:16.025Z,97.64
2023-02-02T05:57:12.963Z,96.00
2023-02-02T05:58:09.744Z,96.21
2023-02-02T05:59:07.581Z,95.81
2023-02-02T06:00:05.811Z,95.47
2023-02-02T06:01:02.561Z,94.54
2023-02-02T06:01:59.332Z,94.39
2023-02-02T06:02:56.136Z,93.60
2023-02-02T06:03:52.926Z,92.67
2023-02-02T06:04:49.834Z,92.37
2023-02-02T06:05:48.552Z,92.26
2023-02-02T06:06:46.665Z,93.43
2023-02-02T06:07:43.377Z,92.95
2023-02-02T06:08:40.327Z,92.64
2023-02-02T06:09:37.087Z,93.72
2023-02-02T06:10:33.987Z,93.01
2023-02-02T06:11:35.341Z,92.83
2023-02-02T06:12:32.156Z,93.70
2023-02-02T06:13:28.839Z,93.40
2023-02-02T06:14:25.643Z,92.99
2023-02-02T06:15:22.618Z,91.76
2023-02-02T06:16:19.690Z,91.89
2023-02-02T06:17:16.422Z,91.79
2023-02-02T06:18:13.295Z,91.82
2023-02-02T06:19:10.009Z,90.90
2023-02-02T06:20:07.067Z,92.20
2023-02-02T06:21:06.220Z,93.47
2023-02-02T06:22:03.077Z,92.95
2023-02-02T06:22:59.911Z,92.76
2023-02-02T06:23:58.186Z,93.77
2023-02-02T06:24:55.000Z,93.65
2023-02-02T06:25:51.789Z,92.83
2023-02-02T06:26:48.572Z,92.86
2023-02-02T06:27:46.382Z,92.44
2023-02-02T06:28:43.695Z,92.43
2023-02-02T06:29:40.543Z,91.19
2023-02-02T06:30:38.938Z,91.78
2023-02-02T06:31:35.774Z,93.30
2023-02-02T06:32:32.732Z,92.16
2023-02-02T06:33:29.494Z,92.37
2023-02-02T06:34:26.222Z,91.92
2023-02-02T06:35:23.800Z,93.21
2023-02-02T06:36:21.419Z,93.85
2023-02-02T06:37:18.158Z,94.38
2023-02-02T06:38:14.917Z,94.79
2023-02-02T06:39:12.487Z,93.64
2023-02-02T06:40:10.411Z,94.46
2023-02-02T06:41:07.260Z,94.87
2023-02-02T06:42:19.353Z,95.37
2023-02-02T06:43:17.755Z,96.20
2023-02-02T06:44:15.432Z,96.05
2023-02-02T06:45:12.404Z,96.46
2023-02-02T06:46:09.172Z,96.03
2023-02-02T06:47:05.907Z,96.61
2023-02-02T06:48:04.175Z,96.76
2023-02-02T06:49:00.944Z,97.30
2023-02-02T06:49:57.727Z,98.31
2023-02-02T06:50:57.507Z,98.72
2023-02-02T06:51:54.245Z,98.45
2023-02-02T06:52:52.072Z,97.22
2023-02-02T06:53:49.568Z,95.80
2023-02-02T06:54:46.318Z,94.20
2023-02-02T06:55:43.050Z,92.63
2023-02-02T06:56:42.787Z,90.17
2023-02-02T06:57:41.404Z,89.25
2023-02-02T06:58:38.220Z,88.98
2023-02-02T06:59:35.207Z,87.35
2023-02-02T07:00:32.279Z,86.56
2023-02-02T07:01:29.111Z,85.32
2023-02-02T07:02:25.925Z,82.42
2023-02-02T07:03:22.762Z,78.41
2023-02-02T07:04:21.968Z,77.62
2023-02-02T07:05:20.418Z,75.98
2023-02-02T07:06:25.064Z,74.39
2023-02-02T07:07:21.797Z,72.00
2023-02-02T07:08:18.528Z,72.24
2023-02-02T07:09:15.399Z,70.63
2023-02-02T07:11:14.112Z,69.80
2023-02-02T07:11:28.987Z,69.69
2023-02-02T07:12:27.171Z,69.67
2023-02-02T07:13:23.888Z,68.06
2023-02-02T07:14:20.636Z,68.17
2023-02-02T07:15:17.547Z,68.54
2023-02-02T07:16:16.101Z,68.85
2023-02-02T07:17:13.027Z,68.53
2023-02-02T07:18:09.761Z,69.20
2023-02-02T07:19:06.601Z,68.86
2023-02-02T07:20:03.606Z,68.78
2023-02-02T07:21:01.470Z,67.37
2023-02-02T07:21:58.286Z,68.61
2023-02-02T07:22:55.392Z,68.36
2023-02-02T07:23:52.307Z,68.49
2023-02-02T07:24:49.143Z,67.84
2023-02-02T07:25:45.919Z,67.58
2023-02-02T07:26:42.801Z,66.20
2023-02-02T07:27:39.640Z,66.05
2023-02-02T07:28:36.729Z,65.53
2023-02-02T07:29:33.598Z,65.67
2023-02-02T07:30:30.777Z,64.00
2023-02-02T07:31:27.787Z,62.96
2023-02-02T07:32:24.587Z,63.21
2023-02-02T07:33:21.686Z,62.78
2023-02-02T07:34:18.537Z,62.16
2023-02-02T07:35:17.044Z,61.42
2023-02-02T07:36:16.781Z,60.90
2023-02-02T07:37:13.623Z,60.80
2023-02-02T07:38:10.470Z,61.80
2023-02-02T07:39:07.868Z,61.09
2023-02-02T07:40:04.950Z,60.62
2023-02-02T07:41:02.063Z,60.05
2023-02-02T07:41:58.855Z,60.09
2023-02-02T07:42:55.843Z,60.41
2023-02-02T07:43:52.746Z,59.52
2023-02-02T07:44:49.547Z,59.45
2023-02-02T07:45:46.308Z,59.58
2023-02-02T07:46:44.841Z,60.42
2023-02-02T07:47:41.908Z,60.92
2023-02-02T07:48:39.720Z,60.27
2023-02-02T07:49:36.553Z,60.92
2023-02-02T07:50:33.398Z,60.42
2023-02-02T07:51:32.255Z,59.73
2023-02-02T07:52:30.111Z,60.83
2023-02-02T07:53:28.771Z,59.57
2023-02-02T07:54:28.402Z,59.97
2023-02-02T07:55:25.174Z,60.13
2023-02-02T07:56:25.495Z,60.71
2023-02-02T07:57:22.258Z,60.99
2023-02-02T07:58:19.059Z,60.32
2023-02-02T07:59:15.769Z,59.52
2023-02-02T08:00:13.179Z,60.36
2023-02-02T08:01:15.701Z,60.38
2023-02-02T08:02:12.538Z,59.90
2023-02-02T08:03:12.545Z,59.19
2023-02-02T08:04:09.460Z,59.38
2023-02-02T08:05:07.500Z,59.84
2023-02-02T08:06:18.745Z,58.75
2023-02-02T08:07:15.594Z,57.99
2023-02-02T08:08:12.405Z,58.57
2023-02-02T08:09:09.747Z,58.42
2023-02-02T08:10:06.928Z,57.59
2023-02-02T08:11:03.728Z,58.00
2023-02-02T08:12:02.366Z,56.96
2023-02-02T08:12:59.177Z,57.97
2023-02-02T08:13:59.322Z,57.35
2023-02-02T08:14:56.347Z,56.75
2023-02-02T08:15:53.198Z,56.76
2023-02-02T08:16:49.967Z,56.04
2023-02-02T08:17:49.979Z,56.11
2023-02-02T08:18:47.691Z,56.03
2023-02-02T08:19:44.598Z,56.84
2023-02-02T08:20:41.401Z,56.33
2023-02-02T08:21:38.340Z,56.47
2023-02-02T08:22:35.111Z,55.88
2023-02-02T08:23:32.197Z,56.37
2023-02-02T08:24:30.885Z,54.97
2023-02-02T08:25:28.444Z,55.50
2023-02-02T08:26:28.051Z,55.08
2023-02-02T08:27:24.956Z,55.04
2023-02-02T08:28:21.984Z,55.61
2023-02-02T08:29:18.758Z,54.72
2023-02-02T08:30:15.556Z,55.43
2023-02-02T08:31:17.130Z,54.66
2023-02-02T08:32:14.153Z,55.25
2023-02-02T08:33:14.129Z,55.52
2023-02-02T08:34:14.096Z,54.83
2023-02-02T08:35:10.952Z,55.04
2023-02-02T08:36:16.856Z,54.60
2023-02-02T08:37:13.641Z,54.63
2023-02-02T08:38:10.715Z,54.96
2023-02-02T08:39:12.948Z,54.76
2023-02-02T08:40:10.509Z,54.62
2023-02-02T08:41:09.976Z,54.06
2023-02-02T08:42:06.806Z,54.28
2023-02-02T08:43:04.066Z,54.66
2023-02-02T08:44:00.976Z,54.38
2023-02-02T08:46:03.304Z,54.78
2023-02-02T08:46:17.226Z,54.52
2023-02-02T08:47:14.220Z,54.44
2023-02-02T08:48:12.715Z,54.51
2023-02-02T08:49:13.641Z,54.37
2023-02-02T08:50:13.687Z,54.97
2023-02-02T08:51:14.477Z,54.93
2023-02-02T08:52:11.234Z,54.80
2023-02-02T08:53:08.015Z,54.46
2023-02-02T08:54:04.805Z,54.34
2023-02-02T08:55:01.584Z,55.05
2023-02-02T08:55:59.934Z,54.49
2023-02-02T08:56:56.891Z,55.00
2023-02-02T08:57:53.709Z,55.06
2023-02-02T08:58:56.444Z,54.45
2023-02-02T08:59:53.279Z,54.32
2023-02-02T09:00:50.167Z,54.67
2023-02-02T09:01:46.981Z,54.73
2023-02-02T09:02:43.809Z,54.45
2023-02-02T09:03:40.644Z,54.66
2023-02-02T09:04:37.402Z,55.36
2023-02-02T09:05:35.881Z,54.59
2023-02-02T09:06:38.041Z,54.75
2023-02-02T09:07:37.420Z,54.43
2023-02-02T09:08:34.458Z,54.07
2023-02-02T09:09:31.233Z,54.18
2023-02-02T09:10:28.598Z,54.38
2023-02-02T09:11:26.536Z,54.45
2023-02-02T09:12:23.236Z,55.16
2023-02-02T09:13:21.327Z,55.37
2023-02-02T09:14:19.728Z,55.69
2023-02-02T09:15:16.554Z,55.71
2023-02-02T09:16:18.032Z,55.75
2023-02-02T09:17:14.840Z,55.52
2023-02-02T09:18:11.559Z,55.13
2023-02-02T09:19:10.263Z,55.33
2023-02-02T09:20:07.393Z,55.41
2023-02-02T09:21:07.235Z,55.37
2023-02-02T09:22:04.143Z,55.49
2023-02-02T09:23:00.861Z,55.48
2023-02-02T09:23:57.605Z,56.06
2023-02-02T09:24:54.317Z,56.73
2023-02-02T09:25:51.137Z,56.25
2023-02-02T09:26:48.272Z,56.26
2023-02-02T09:27:45.077Z,56.23
2023-02-02T09:28:44.954Z,55.73
2023-02-02T09:29:41.743Z,56.17
2023-02-02T09:30:38.515Z,55.68
2023-02-02T09:31:37.411Z,55.30
2023-02-02T09:32:34.816Z,55.22
2023-02-02T09:33:31.632Z,55.12
2023-02-02T09:34:28.619Z,54.67
2023-02-02T09:35:25.799Z,54.85
2023-02-02T09:36:24.825Z,55.25
2023-02-02T09:37:21.618Z,55.43
2023-02-02T09:38:18.343Z,55.25
2023-02-02T09:39:16.709Z,54.77
2023-02-02T09:40:27.641Z,54.28
2023-02-02T09:41:42.497Z,54.77
2023-02-02T09:43:06.447Z,54.50
2023-02-02T09:44:24.944Z,54.84
2023-02-02T09:45:40.027Z,54.91
2023-02-02T09:47:05.002Z,54.79
2023-02-02T09:48:17.266Z,54.84
2023-02-02T09:49:23.262Z,54.76
2023-02-02T09:50:40.639Z,54.78
2023-02-02T09:51:45.590Z,54.68
2023-02-02T09:53:11.597Z,54.21
2023-02-02T09:54:21.133Z,54.61
2023-02-02T09:55:38.092Z,54.25
2023-02-02T09:56:42.097Z,54.19
2023-02-02T09:57:49.730Z,54.39
2023-02-02T09:58:53.795Z,54.37
2023-02-02T09:59:54.180Z,53.27
2023-02-02T10:01:06.436Z,53.12
2023-02-02T10:02:13.560Z,52.70
2023-02-02T10:03:23.340Z,53.18
2023-02-02T10:04:39.122Z,53.23
2023-02-02T10:05:50.856Z,53.22
2023-02-02T10:06:54.895Z,53.01
2023-02-02T10:07:58.108Z,52.53
2023-02-02T10:09:13.371Z,52.32
2023-02-02T10:10:19.974Z,52.99
2023-02-02T10:11:55.796Z,52.40
2023-02-02T10:13:03.128Z,52.03
2023-02-02T10:14:43.867Z,51.73
2023-02-02T10:16:08.494Z,51.09
2023-02-02T10:17:37.356Z,51.52
2023-02-02T10:18:43.102Z,52.07
2023-02-02T10:19:42.500Z,51.60
2023-02-02T10:20:56.065Z,52.08
2023-02-02T10:22:29.993Z,51.59
2023-02-02T10:23:37.733Z,51.99
2023-02-02T10:24:36.107Z,51.97
2023-02-02T10:25:35.396Z,51.63
2023-02-02T10:26:43.739Z,51.58
2023-02-02T10:27:41.530Z,51.64
2023-02-02T10:29:01.432Z,50.59
2023-02-02T10:30:03.685Z,49.77
2023-02-02T10:31:02.069Z,50.26
2023-02-02T10:32:23.603Z,50.61
2023-02-02T10:33:39.801Z,49.86
2023-02-02T10:34:42.282Z,50.41
2023-02-02T10:35:53.625Z,50.74
2023-02-02T10:37:10.145Z,50.41
2023-02-02T10:38:37.910Z,51.37
2023-02-02T10:40:14.941Z,51.42
2023-02-02T10:41:19.927Z,51.22
2023-02-02T10:43:13.131Z,51.24
2023-02-02T10:44:29.559Z,51.35
2023-02-02T10:45:26.400Z,50.86
2023-02-02T10:46:31.385Z,51.52
2023-02-02T10:47:32.350Z,51.63
2023-02-02T10:48:36.002Z,51.42
2023-02-02T10:49:36.706Z,50.13
2023-02-02T10:50:35.505Z,50.94
2023-02-02T10:51:32.544Z,50.28
2023-02-02T10:52:34.962Z,50.08
2023-02-02T10:53:33.370Z,50.08
2023-02-02T10:55:00.935Z,51.09
2023-02-02T10:56:05.971Z,50.95
2023-02-02T10:57:07.606Z,50.22
2023-02-02T10:58:13.239Z,51.01
2023-02-02T10:59:24.952Z,51.39
2023-02-02T11:00:35.056Z,51.30
2023-02-02T11:01:32.022Z,50.75
2023-02-02T11:02:28.886Z,51.16
2023-02-02T11:03:29.760Z,50.86
2023-02-02T11:04:45.561Z,50.95
2023-02-02T11:06:18.513Z,50.23
2023-02-02T11:07:20.584Z,50.21
2023-02-02T11:08:27.259Z,50.02
2023-02-02T11:09:39.846Z,50.06
2023-02-02T11:10:36.548Z,50.09
2023-02-02T11:11:43.308Z,49.54
2023-02-02T11:12:46.942Z,50.18
2023-02-02T11:14:08.515Z,50.40
2023-02-02T11:15:28.151Z,50.37
2023-02-02T11:16:44.240Z,50.02
2023-02-02T11:17:43.529Z,49.11
2023-02-02T11:18:44.273Z,49.00
2023-02-02T11:19:41.264Z,49.05
2023-02-02T11:20:39.168Z,49.05
2023-02-02T11:21:38.632Z,49.10
2023-02-02T11:22:38.652Z,49.25
2023-02-02T11:23:35.592Z,49.09
2023-02-02T11:24:47.057Z,49.94
2023-02-02T11:26:00.970Z,49.76
2023-02-02T11:27:22.261Z,50.17
2023-02-02T11:28:28.633Z,50.29
2023-02-02T11:29:41.472Z,50.74
2023-02-02T11:30:41.591Z,50.05
2023-02-02T11:31:38.563Z,50.27
2023-02-02T11:32:35.701Z,50.47
2023-02-02T11:33:37.010Z,50.91
2023-02-02T11:34:39.829Z,50.05
2023-02-02T11:35:39.117Z,49.80
2023-02-02T11:36:35.971Z,50.49
2023-02-02T11:37:35.417Z,49.90
2023-02-02T11:38:33.174Z,50.39
2023-02-02T11:39:30.414Z,49.99
2023-02-02T11:40:36.975Z,50.50
2023-02-02T11:41:33.945Z,50.61
2023-02-02T11:42:30.812Z,49.94
2023-02-02T11:43:41.186Z,50.42
2023-02-02T11:44:40.373Z,50.89
2023-02-02T11:45:43.504Z,49.95
2023-02-02T11:46:40.329Z,51.22
2023-02-02T11:47:37.189Z,50.63
2023-02-02T11:48:48.489Z,49.95
2023-02-02T11:49:51.619Z,49.41
2023-02-02T11:50:55.375Z,49.57
2023-02-02T11:52:05.479Z,49.92
2023-02-02T11:53:02.359Z,49.47
2023-02-02T11:54:08.044Z,50.13
2023-02-02T11:55:17.619Z,49.88
2023-02-02T11:56:27.992Z,49.34
2023-02-02T11:57:28.385Z,48.78
2023-02-02T11:58:29.499Z,48.31
2023-02-02T11:59:32.735Z,47.92
2023-02-02T12:00:30.586Z,47.99
2023-02-02T12:01:36.817Z,47.86
2023-02-02T12:02:34.158Z,48.49
2023-02-02T12:03:55.090Z,46.77
2023-02-02T12:04:54.562Z,46.21
2023-02-02T12:05:51.455Z,45.92
2023-02-02T12:06:48.184Z,46.05
2023-02-02T12:07:45.623Z,46.00
2023-02-02T12:08:42.478Z,46.89
2023-02-02T12:09:39.216Z,46.57
2023-02-02T12:10:44.812Z,46.13
2023-02-02T12:12:03.324Z,46.51
2023-02-02T12:13:18.170Z,46.68
2023-02-02T12:14:32.855Z,46.45
2023-02-02T12:15:46.602Z,46.52
2023-02-02T12:17:18.713Z,46.21
2023-02-02T12:18:32.373Z,46.15
2023-02-02T12:19:56.051Z,47.25
2023-02-02T12:21:04.819Z,47.47
2023-02-02T12:22:23.409Z,47.47
2023-02-02T12:23:37.143Z,46.92
2023-02-02T12:24:53.884Z,47.15
2023-02-02T12:26:10.387Z,46.46
2023-02-02T12:27:20.093Z,46.26
2023-02-02T12:28:25.595Z,47.03
2023-02-02T12:30:05.307Z,47.31
2023-02-02T12:31:48.848Z,46.89
2023-02-02T12:33:03.932Z,46.56
2023-02-02T12:34:26.640Z,47.18
2023-02-02T12:35:41.704Z,47.42
2023-02-02T12:37:06.664Z,46.31
2023-02-02T12:38:06.280Z,46.04
2023-02-02T12:39:05.423Z,46.20
2023-02-02T12:40:17.372Z,46.15
2023-02-02T12:42:09.755Z,46.03
2023-02-02T12:43:24.594Z,45.46
2023-02-02T12:44:50.980Z,45.04
2023-02-02T12:46:17.452Z,45.65
2023-02-02T12:47:17.034Z,46.13
2023-02-02T12:48:25.652Z,45.72
2023-02-02T12:49:59.640Z,46.31
2023-02-02T12:51:20.962Z,46.67
2023-02-02T12:52:26.348Z,46.86
2023-02-02T12:53:35.294Z,46.91
2023-02-02T12:55:00.784Z,45.57
2023-02-02T12:56:40.609Z,45.09
2023-02-02T12:57:40.090Z,44.86
2023-02-02T12:58:46.074Z,44.90
2023-02-02T13:00:20.116Z,45.17
2023-02-02T13:01:22.972Z,45.11
2023-02-02T13:02:31.877Z,44.73
2023-02-02T13:03:34.662Z,44.50
2023-02-02T13:04:47.207Z,44.74
2023-02-02T13:06:02.398Z,44.99
2023-02-02T13:07:20.689Z,45.31
2023-02-02T13:08:57.950Z,45.05
2023-02-02T13:10:17.532Z,45.63
2023-02-02T13:11:30.993Z,46.02
2023-02-02T13:12:33.247Z,46.16
2023-02-02T13:13:36.905Z,45.94
2023-02-02T13:15:02.636Z,46.25
2023-02-02T13:16:09.175Z,46.10
2023-02-02T13:17:19.431Z,46.09
2023-02-02T13:18:20.926Z,45.43
2023-02-02T13:19:34.409Z,46.36
2023-02-02T13:20:43.268Z,46.31